ADDS METAR Data INFO
IDs: Format: Raw Decoded Include TAF

Data at: 2250 UTC 22 Jun 2018

K2V6 222234Z AUTO 10012G17KT 10SM CLR 21/06 A2987 RMK AO2 LTG DSNT E
K2V6 222214Z AUTO 10014G19KT 10SM CLR 20/05 A2986 RMK AO2 LTG DSNT E
K2V6 222154Z AUTO 10011KT 10SM CLR 19/06 A2986 RMK AO2 LTG DSNT E
K2V6 222129Z AUTO 09013G18KT 10SM CLR 16/05 A2987 RMK AO2 LTG DSNT E
K2V6 222114Z AUTO 09012KT 10SM CLR 16/05 A2987 RMK AO2 LTG DSNT E THRU S
K2V6 222054Z AUTO 09013KT 10SM CLR 16/04 A2989 RMK AO2 LTG DSNT E
K2V6 222034Z AUTO 09015KT 10SM VCTS SCT110 16/05 A2988 RMK AO2 LTG DSNT E AND SE
K2V6 222014Z AUTO 08017KT 10SM -VCTSRA SCT085 BKN110 15/05 A2990 RMK AO2 LTG DSNT E THRU SW
K2V6 221954Z AUTO 07010KT 10SM TSRA OVC075 16/06 A2998 RMK AO2 LTG DSNT ALQS
K2V6 221934Z AUTO 32006G17KT 10SM -TSRA SCT050 BKN075 OVC090 16/06 A3002 RMK AO2 LTG DSNT E THRU SW
K2V6 221909Z AUTO 28003KT 4SM -TSRA SCT032 BKN075 OVC100 16/05 A2999 RMK AO2 LTG DSNT ALQS
K2V6 221854Z AUTO 25008G17KT 1 1/4SM +TSRA SCT025 BKN032 OVC055 15/06 A2999 RMK AO2 LTG DSNT ALQS
K2V6 221834Z AUTO 26023G33KT 5SM +TSRA SCT041 BKN065 OVC100 20/12 A3001 RMK AO2 LTG DSNT ALQS
K2V6 221814Z AUTO 19009KT 10SM TS SCT065 SCT075 BKN120 23/11 A2994 RMK AO2 LTG DSNT W THRU NE
K2V6 221754Z AUTO 17015G22KT 10SM VCTS CLR 23/11 A2993 RMK AO2 LTG DSNT SW AND W
K2V6 221734Z AUTO 17012G18KT 10SM VCTS SCT110 24/11 A2994 RMK AO2 LTG DSNT W
K2V6 221714Z AUTO 19012G19KT 10SM SCT120 25/00 A2995 RMK AO2 LTG DSNT W
K2V6 221654Z AUTO 18012G19KT 10SM CLR 22/04 A2995 RMK AO2
K2V6 221634Z AUTO 19014G20KT 10SM CLR 21/05 A2994 RMK AO2
K2V6 221614Z AUTO 19013G18KT 10SM CLR 20/06 A2996 RMK AO2
K2V6 221554Z AUTO 18015G20KT 10SM CLR 21/06 A2996 RMK AO2
K2V6 221534Z AUTO 19013G20KT 10SM CLR 20/07 A2996 RMK AO2
K2V6 221514Z AUTO 18021G24KT 10SM SCT100 21/06 A2995 RMK AO2
K2V6 221454Z AUTO 18014G21KT 10SM SCT060 SCT100 18/06 A2997 RMK AO2
K2V6 221434Z AUTO 19009KT 10SM SCT045 BKN050 19/07 A3002 RMK AO2
K2V6 221414Z AUTO 22006KT 10SM BKN045 BKN055 BKN065 18/07 A3004 RMK AO2
K2V6 221354Z AUTO 22007KT 10SM BKN043 OVC055 17/07 A3003 RMK AO2
K2V6 221334Z AUTO 27003KT 10SM SCT041 17/07 A3004 RMK AO2
K2V6 221314Z AUTO 00000KT 10SM CLR 16/12 A3003 RMK AO2
K2V6 221249Z AUTO 24005KT 10SM CLR 13/11 A3002 RMK AO2
K2V6 221229Z AUTO 21006KT 10SM CLR 12/10 A3002 RMK AO2
K2V6 221214Z AUTO 20003KT 10SM CLR 11/10 A3003 RMK AO2
K2V6 221154Z AUTO 20006KT 10SM CLR 11/10 A3003 RMK AO2
K2V6 221134Z AUTO 19003KT 10SM CLR 11/10 A3002 RMK AO2
K2V6 221114Z AUTO 00000KT 10SM CLR 11/10 A3002 RMK AO2
K2V6 221054Z AUTO 18004KT 10SM CLR 11/10 A3002 RMK AO2
K2V6 221034Z AUTO 08003KT 10SM CLR 12/10 A3002 RMK AO2
K2V6 221014Z AUTO 00000KT 10SM CLR 12/10 A3001 RMK AO2
K2V6 220954Z AUTO 19003KT 10SM CLR 11/05 A3002 RMK AO2
K2V6 220934Z AUTO 17003KT 10SM CLR 12/05 A3002 RMK AO2
K2V6 220914Z AUTO 19003KT 10SM CLR 12/06 A3002 RMK AO2
K2V6 220849Z AUTO 16006KT 10SM CLR 12/06 A3002 RMK AO2
K2V6 220829Z AUTO 15004KT 10SM CLR 13/06 A3003 RMK AO2
K2V6 220814Z AUTO 19005KT 10SM CLR 13/06 A3004 RMK AO2
K2V6 220754Z AUTO 17004KT 10SM CLR 13/06 A3005 RMK AO2
K2V6 220734Z AUTO 15003KT 10SM CLR 14/07 A3006 RMK AO2
K2V6 220714Z AUTO 00000KT 10SM CLR 14/07 A3007 RMK AO2 LTG DSNT SE
K2V6 220654Z AUTO 06003KT 10SM SCT110 15/06 A3007 RMK AO2 LTG DSNT SE
K2V6 220634Z AUTO 05003KT 10SM SCT110 15/07 A3007 RMK AO2
K2V6 220614Z AUTO 00000KT 10SM CLR 15/06 A3008 RMK AO2
K2V6 220554Z AUTO 06004KT 10SM CLR 15/06 A3007 RMK AO2
K2V6 220534Z AUTO 10004KT 10SM CLR 15/06 A3007 RMK AO2
K2V6 220514Z AUTO 10003KT 10SM CLR 15/06 A3006 RMK AO2
K2V6 220454Z AUTO 09005KT 10SM CLR 15/06 A3004 RMK AO2
K2V6 220434Z AUTO 15005KT 10SM CLR 15/05 A3004 RMK AO2
K2V6 220414Z AUTO 13005KT 10SM CLR 16/04 A3006 RMK AO2
K2V6 220354Z AUTO 12006KT 10SM CLR 17/02 A3006 RMK AO2
K2V6 220334Z AUTO 11007KT 10SM CLR 18/01 A3006 RMK AO2
K2V6 220314Z AUTO 09005KT 10SM CLR 18/02 A3009 RMK AO2
K2V6 220254Z AUTO 00000KT 10SM CLR 18/01 A3010 RMK AO2
K2V6 220234Z AUTO 16003KT 10SM SCT100 20/00 A3009 RMK AO2
K2V6 220214Z AUTO 00000KT 10SM CLR 20/00 A3008 RMK AO2
K2V6 220154Z AUTO 07006KT 10SM CLR 21/M03 A3004 RMK AO2
K2V6 220134Z AUTO 06009KT 10SM CLR 21/M05 A3003 RMK AO2
K2V6 220114Z AUTO 06008KT 10SM CLR 22/M08 A3004 RMK AO2
K2V6 220054Z AUTO 08009KT 10SM CLR 23/M10 A3004 RMK AO2
K2V6 220034Z AUTO 07010G15KT 10SM CLR 23/M11 A3003 RMK AO2
K2V6 220014Z AUTO 07010KT 10SM CLR 24/M11 A3003 RMK AO2
K2V6 212354Z AUTO 07008KT 10SM CLR 25/M12 A3003 RMK AO2
K2V6 212334Z AUTO 04008G15KT 10SM CLR 25/M13 A3003 RMK AO2
K2V6 212314Z AUTO 05009KT 10SM CLR 25/M13 A3004 RMK AO2
K2V6 212254Z AUTO 08008KT 10SM CLR 25/M13 A3005 RMK AO2
K2V6 212234Z AUTO 02005KT 10SM CLR 26/M13 A3006 RMK AO2
K2V6 212214Z AUTO 05008KT 10SM CLR 25/M12 A3006 RMK AO2
K2V6 212154Z AUTO 05006KT 10SM CLR 25/M13 A3006 RMK AO2
K2V6 212134Z AUTO 36004KT 10SM CLR 26/M13 A3006 RMK AO2
K2V6 212114Z AUTO 05006KT 10SM CLR 25/M13 A3007 RMK AO2
K2V6 212054Z AUTO 36006KT 10SM CLR 25/M13 A3007 RMK AO2
K2V6 212034Z AUTO 06004KT 10SM CLR 24/M12 A3007 RMK AO2
K2V6 212014Z AUTO 03003KT 10SM CLR 25/M10 A3008 RMK AO2
K2V6 211954Z AUTO 35006KT 10SM SCT050 SCT070 25/M08 A3008 RMK AO2
K2V6 211934Z AUTO 30004KT 10SM SCT050 24/M07 A3009 RMK AO2
K2V6 211914Z AUTO 24004KT 10SM SCT050 23/M06 A3009 RMK AO2
K2V6 211854Z AUTO 01005KT 10SM SCT047 SCT060 23/M05 A3011 RMK AO2
K2V6 211834Z AUTO 33003KT 10SM SCT045 22/M03 A3011 RMK AO2
K2V6 211814Z AUTO 05004KT 10SM SCT045 22/M03 A3012 RMK AO2
K2V6 211754Z AUTO 02004KT 10SM SCT047 22/M02 A3012 RMK AO2
K2V6 211734Z AUTO 01004KT 10SM CLR 21/00 A3012 RMK AO2
K2V6 211714Z AUTO 36006KT 10SM CLR 21/00 A3012 RMK AO2
K2V6 211649Z AUTO 36004KT 10SM CLR 21/03 A3013 RMK AO2
K2V6 211629Z AUTO 36006KT 10SM CLR 20/05 A3013 RMK AO2
K2V6 211609Z AUTO 32005KT 10SM CLR 20/06 A3013 RMK AO2
K2V6 211554Z AUTO 36007KT 10SM CLR 20/07 A3014 RMK AO2
K2V6 211534Z AUTO 33004KT 10SM CLR 18/06 A3015 RMK AO2
K2V6 211514Z AUTO 33006KT 10SM CLR 18/07 A3015 RMK AO2
K2V6 211449Z AUTO 30005KT 10SM CLR 17/10 A3015 RMK AO2
K2V6 211434Z AUTO 31005KT 10SM CLR 17/11 A3015 RMK AO2
K2V6 211414Z AUTO 30005KT 10SM CLR 16/11 A3015 RMK AO2
K2V6 211354Z AUTO 29006KT 10SM CLR 16/12 A3016 RMK AO2
K2V6 211334Z AUTO 28006KT 10SM CLR 15/12 A3016 RMK AO2
K2V6 211314Z AUTO 28005KT 10SM CLR 14/11 A3017 RMK AO2
K2V6 211254Z AUTO 27006KT 10SM CLR 13/11 A3016 RMK AO2
K2V6 211234Z AUTO 27004KT 10SM CLR 12/10 A3016 RMK AO2
K2V6 211214Z AUTO 25004KT 10SM CLR 10/09 A3016 RMK AO2
K2V6 211149Z AUTO 29004KT 10SM CLR 09/08 A3015 RMK AO2
K2V6 211129Z AUTO 27005KT 10SM CLR 09/08 A3015 RMK AO2
K2V6 211114Z AUTO 27004KT 10SM CLR 09/08 A3015 RMK AO2
K2V6 211054Z AUTO 27005KT 10SM CLR 10/08 A3014 RMK AO2